sensor_id;sensor_type;location;lat;lon;timestamp;temperature;humidity
45765;DHT22;31474;45.332;10.230;2023-04-23T00:00:01;18.10;99.90
45765;DHT22;31474;45.332;10.230;2023-04-23T00:02:28;18.00;99.90
45765;DHT22;31474;45.332;10.230;2023-04-23T00:05:02;18.00;99.90
45765;DHT22;31474;45.332;10.230;2023-04-23T00:07:31;17.90;99.90
45765;DHT22;31474;45.332;10.230;2023-04-23T00:09:57;17.90;99.90
45765;DHT22;31474;45.332;10.230;2023-04-23T00:12:24;17.80;99.90
45765;DHT22;31474;45.332;10.230;2023-04-23T00:14:50;17.80;99.90
45765;DHT22;31474;45.332;10.230;2023-04-23T00:17:15;17.80;99.90
45765;DHT22;31474;45.332;10.230;2023-04-23T00:19:41;17.80;99.90
45765;DHT22;31474;45.332;10.230;2023-04-23T00:22:07;17.80;99.90
45765;DHT22;31474;45.332;10.230;2023-04-23T00:24:32;17.80;99.90
45765;DHT22;31474;45.332;10.230;2023-04-23T00:27:00;17.80;99.90
45765;DHT22;31474;45.332;10.230;2023-04-23T00:29:26;17.80;99.90
45765;DHT22;31474;45.332;10.230;2023-04-23T00:31:52;17.80;99.90
45765;DHT22;31474;45.332;10.230;2023-04-23T00:34:17;17.80;99.90
45765;DHT22;31474;45.332;10.230;2023-04-23T00:36:43;17.70;99.90
45765;DHT22;31474;45.332;10.230;2023-04-23T00:39:09;17.40;99.90
45765;DHT22;31474;45.332;10.230;2023-04-23T00:41:36;17.30;99.90
45765;DHT22;31474;45.332;10.230;2023-04-23T00:44:01;17.20;99.90
45765;DHT22;31474;45.332;10.230;2023-04-23T00:46:27;17.20;99.90
45765;DHT22;31474;45.332;10.230;2023-04-23T00:48:53;17.20;99.90
45765;DHT22;31474;45.332;10.230;2023-04-23T00:51:20;17.00;99.90
45765;DHT22;31474;45.332;10.230;2023-04-23T00:53:47;16.90;99.90
45765;DHT22;31474;45.332;10.230;2023-04-23T00:56:14;16.80;99.90
45765;DHT22;31474;45.332;10.230;2023-04-23T00:58:40;16.80;99.90
45765;DHT22;31474;45.332;10.230;2023-04-23T01:01:06;16.80;99.90
45765;DHT22;31474;45.332;10.230;2023-04-23T01:03:34;16.90;99.90
45765;DHT22;31474;45.332;10.230;2023-04-23T01:06:00;16.90;99.90
45765;DHT22;31474;45.332;10.230;2023-04-23T01:08:27;16.90;99.90
45765;DHT22;31474;45.332;10.230;2023-04-23T01:10:54;16.80;99.90
45765;DHT22;31474;45.332;10.230;2023-04-23T01:13:19;16.80;99.90
45765;DHT22;31474;45.332;10.230;2023-04-23T01:15:46;16.80;99.90
45765;DHT22;31474;45.332;10.230;2023-04-23T01:18:13;16.80;99.90
45765;DHT22;31474;45.332;10.230;2023-04-23T01:20:39;16.90;99.90
45765;DHT22;31474;45.332;10.230;2023-04-23T01:23:05;16.90;99.90
45765;DHT22;31474;45.332;10.230;2023-04-23T01:25:31;16.80;99.90
45765;DHT22;31474;45.332;10.230;2023-04-23T01:27:59;16.70;99.90
45765;DHT22;31474;45.332;10.230;2023-04-23T01:30:26;16.70;99.90
45765;DHT22;31474;45.332;10.230;2023-04-23T01:32:53;16.80;99.90
45765;DHT22;31474;45.332;10.230;2023-04-23T01:35:20;16.80;99.90
45765;DHT22;31474;45.332;10.230;2023-04-23T01:37:46;16.70;99.90
45765;DHT22;31474;45.332;10.230;2023-04-23T01:40:12;16.70;99.90
45765;DHT22;31474;45.332;10.230;2023-04-23T01:42:38;16.80;99.90
45765;DHT22;31474;45.332;10.230;2023-04-23T01:45:05;16.80;99.90
45765;DHT22;31474;45.332;10.230;2023-04-23T01:47:33;16.70;99.90
45765;DHT22;31474;45.332;10.230;2023-04-23T01:49:59;16.70;99.90
45765;DHT22;31474;45.332;10.230;2023-04-23T01:52:25;16.80;99.90
45765;DHT22;31474;45.332;10.230;2023-04-23T01:54:50;16.80;99.90
45765;DHT22;31474;45.332;10.230;2023-04-23T01:57:17;16.80;99.90
45765;DHT22;31474;45.332;10.230;2023-04-23T01:59:49;16.80;99.90
45765;DHT22;31474;45.332;10.230;2023-04-23T02:02:15;16.80;99.90
45765;DHT22;31474;45.332;10.230;2023-04-23T02:04:43;16.80;99.90
45765;DHT22;31474;45.332;10.230;2023-04-23T02:07:09;16.80;99.90
45765;DHT22;31474;45.332;10.230;2023-04-23T02:09:35;16.70;99.90
45765;DHT22;31474;45.332;10.230;2023-04-23T02:12:01;16.70;99.90
45765;DHT22;31474;45.332;10.230;2023-04-23T02:14:27;16.70;99.90
45765;DHT22;31474;45.332;10.230;2023-04-23T02:16:52;16.70;99.90
45765;DHT22;31474;45.332;10.230;2023-04-23T02:19:18;16.70;99.90
45765;DHT22;31474;45.332;10.230;2023-04-23T02:21:44;16.70;99.90
45765;DHT22;31474;45.332;10.230;2023-04-23T02:24:09;16.60;99.90
45765;DHT22;31474;45.332;10.230;2023-04-23T02:26:35;16.60;99.90
45765;DHT22;31474;45.332;10.230;2023-04-23T02:29:01;16.60;99.90
45765;DHT22;31474;45.332;10.230;2023-04-23T02:31:27;16.60;99.90
45765;DHT22;31474;45.332;10.230;2023-04-23T02:33:52;16.60;99.90
45765;DHT22;31474;45.332;10.230;2023-04-23T02:36:18;16.60;99.90
45765;DHT22;31474;45.332;10.230;2023-04-23T02:38:43;16.50;99.90
45765;DHT22;31474;45.332;10.230;2023-04-23T02:41:10;16.40;99.90
45765;DHT22;31474;45.332;10.230;2023-04-23T02:43:36;16.30;99.90
45765;DHT22;31474;45.332;10.230;2023-04-23T02:46:02;16.30;99.90
45765;DHT22;31474;45.332;10.230;2023-04-23T02:48:39;16.30;99.90
45765;DHT22;31474;45.332;10.230;2023-04-23T02:51:06;16.40;99.90
45765;DHT22;31474;45.332;10.230;2023-04-23T02:53:32;16.40;99.90
45765;DHT22;31474;45.332;10.230;2023-04-23T02:55:58;16.40;99.90
45765;DHT22;31474;45.332;10.230;2023-04-23T02:58:23;16.40;99.90
45765;DHT22;31474;45.332;10.230;2023-04-23T03:00:49;16.40;99.90
45765;DHT22;31474;45.332;10.230;2023-04-23T03:03:16;16.50;99.90
45765;DHT22;31474;45.332;10.230;2023-04-23T03:05:41;16.50;99.90
45765;DHT22;31474;45.332;10.230;2023-04-23T03:08:07;16.40;99.90
45765;DHT22;31474;45.332;10.230;2023-04-23T03:10:32;16.40;99.90
45765;DHT22;31474;45.332;10.230;2023-04-23T03:12:58;16.40;99.90
45765;DHT22;31474;45.332;10.230;2023-04-23T03:15:24;16.40;99.90
45765;DHT22;31474;45.332;10.230;2023-04-23T03:17:51;16.30;99.90
45765;DHT22;31474;45.332;10.230;2023-04-23T03:20:18;16.40;99.90
45765;DHT22;31474;45.332;10.230;2023-04-23T03:22:44;16.30;99.90
45765;DHT22;31474;45.332;10.230;2023-04-23T03:25:10;16.40;99.90
45765;DHT22;31474;45.332;10.230;2023-04-23T03:27:38;16.40;99.90
45765;DHT22;31474;45.332;10.230;2023-04-23T03:30:04;16.40;99.90
45765;DHT22;31474;45.332;10.230;2023-04-23T03:32:32;16.40;99.90
45765;DHT22;31474;45.332;10.230;2023-04-23T03:34:57;16.40;99.90
45765;DHT22;31474;45.332;10.230;2023-04-23T03:37:23;16.30;99.90
45765;DHT22;31474;45.332;10.230;2023-04-23T03:39:49;16.20;99.90
45765;DHT22;31474;45.332;10.230;2023-04-23T03:42:15;16.30;99.90
45765;DHT22;31474;45.332;10.230;2023-04-23T03:44:41;16.20;99.90
45765;DHT22;31474;45.332;10.230;2023-04-23T03:47:06;16.20;99.90
45765;DHT22;31474;45.332;10.230;2023-04-23T03:49:32;16.20;99.90
45765;DHT22;31474;45.332;10.230;2023-04-23T03:51:58;16.20;99.90
45765;DHT22;31474;45.332;10.230;2023-04-23T03:54:23;16.20;99.90
45765;DHT22;31474;45.332;10.230;2023-04-23T03:56:51;16.10;99.90
45765;DHT22;31474;45.332;10.230;2023-04-23T03:59:16;16.10;99.90
45765;DHT22;31474;45.332;10.230;2023-04-23T04:01:42;16.10;99.90
45765;DHT22;31474;45.332;10.230;2023-04-23T04:04:08;16.10;99.90
45765;DHT22;31474;45.332;10.230;2023-04-23T04:06:34;16.10;99.90
45765;DHT22;31474;45.332;10.230;2023-04-23T04:09:00;16.10;99.90
45765;DHT22;31474;45.332;10.230;2023-04-23T04:11:26;16.10;99.90
45765;DHT22;31474;45.332;10.230;2023-04-23T04:13:51;16.10;99.90
45765;DHT22;31474;45.332;10.230;2023-04-23T04:16:17;16.10;99.90
45765;DHT22;31474;45.332;10.230;2023-04-23T04:18:42;16.00;99.90
45765;DHT22;31474;45.332;10.230;2023-04-23T04:21:08;16.00;99.90
45765;DHT22;31474;45.332;10.230;2023-04-23T04:23:34;16.00;99.90
45765;DHT22;31474;45.332;10.230;2023-04-23T04:26:00;16.00;99.90
45765;DHT22;31474;45.332;10.230;2023-04-23T04:28:26;16.00;99.90
45765;DHT22;31474;45.332;10.230;2023-04-23T04:30:52;16.00;99.90
45765;DHT22;31474;45.332;10.230;2023-04-23T04:33:19;16.10;99.90
45765;DHT22;31474;45.332;10.230;2023-04-23T04:35:45;16.10;99.90
45765;DHT22;31474;45.332;10.230;2023-04-23T04:38:13;16.10;99.90
45765;DHT22;31474;45.332;10.230;2023-04-23T04:40:39;16.10;99.90
45765;DHT22;31474;45.332;10.230;2023-04-23T04:43:05;16.00;99.90
45765;DHT22;31474;45.332;10.230;2023-04-23T04:45:30;16.00;99.90
45765;DHT22;31474;45.332;10.230;2023-04-23T04:47:56;16.00;99.90
45765;DHT22;31474;45.332;10.230;2023-04-23T04:50:22;16.10;99.90
45765;DHT22;31474;45.332;10.230;2023-04-23T04:52:48;16.00;99.90
45765;DHT22;31474;45.332;10.230;2023-04-23T04:55:14;16.00;99.90
45765;DHT22;31474;45.332;10.230;2023-04-23T04:57:40;15.90;99.90
45765;DHT22;31474;45.332;10.230;2023-04-23T05:00:26;15.90;99.90
45765;DHT22;31474;45.332;10.230;2023-04-23T05:02:56;15.90;99.90
45765;DHT22;31474;45.332;10.230;2023-04-23T05:05:22;15.90;99.90
45765;DHT22;31474;45.332;10.230;2023-04-23T05:07:48;15.80;99.90
45765;DHT22;31474;45.332;10.230;2023-04-23T05:10:14;15.90;99.90
45765;DHT22;31474;45.332;10.230;2023-04-23T05:12:41;15.90;99.90
45765;DHT22;31474;45.332;10.230;2023-04-23T05:15:09;16.00;99.90
45765;DHT22;31474;45.332;10.230;2023-04-23T05:17:35;15.90;99.90
45765;DHT22;31474;45.332;10.230;2023-04-23T05:20:01;15.90;99.90
45765;DHT22;31474;45.332;10.230;2023-04-23T05:22:28;16.00;99.90
45765;DHT22;31474;45.332;10.230;2023-04-23T05:24:53;15.90;99.90
45765;DHT22;31474;45.332;10.230;2023-04-23T05:27:19;15.90;99.90
45765;DHT22;31474;45.332;10.230;2023-04-23T05:29:45;15.90;99.90
45765;DHT22;31474;45.332;10.230;2023-04-23T05:32:11;15.90;99.90
45765;DHT22;31474;45.332;10.230;2023-04-23T05:34:38;15.90;99.90
45765;DHT22;31474;45.332;10.230;2023-04-23T05:37:03;16.00;99.90
45765;DHT22;31474;45.332;10.230;2023-04-23T05:39:30;16.00;99.90
45765;DHT22;31474;45.332;10.230;2023-04-23T05:41:56;16.10;99.90
45765;DHT22;31474;45.332;10.230;2023-04-23T05:44:22;16.10;99.90
45765;DHT22;31474;45.332;10.230;2023-04-23T05:46:48;16.10;99.90
45765;DHT22;31474;45.332;10.230;2023-04-23T05:49:14;16.20;99.90
45765;DHT22;31474;45.332;10.230;2023-04-23T05:51:40;16.20;99.90
45765;DHT22;31474;45.332;10.230;2023-04-23T05:54:05;16.20;99.90
45765;DHT22;31474;45.332;10.230;2023-04-23T05:56:31;16.30;99.90
45765;DHT22;31474;45.332;10.230;2023-04-23T05:58:56;16.30;99.90
45765;DHT22;31474;45.332;10.230;2023-04-23T06:01:22;16.30;99.90
45765;DHT22;31474;45.332;10.230;2023-04-23T06:03:49;16.40;99.90
45765;DHT22;31474;45.332;10.230;2023-04-23T06:06:14;16.50;99.90
45765;DHT22;31474;45.332;10.230;2023-04-23T06:08:40;16.50;99.90
45765;DHT22;31474;45.332;10.230;2023-04-23T06:11:05;16.70;99.90
45765;DHT22;31474;45.332;10.230;2023-04-23T06:13:32;16.90;99.90
45765;DHT22;31474;45.332;10.230;2023-04-23T06:15:57;17.10;99.90
45765;DHT22;31474;45.332;10.230;2023-04-23T06:18:23;17.20;99.90
45765;DHT22;31474;45.332;10.230;2023-04-23T06:20:49;17.30;99.90
45765;DHT22;31474;45.332;10.230;2023-04-23T06:23:16;17.30;99.90
45765;DHT22;31474;45.332;10.230;2023-04-23T06:25:42;17.40;99.90
45765;DHT22;31474;45.332;10.230;2023-04-23T06:28:08;17.50;99.90
45765;DHT22;31474;45.332;10.230;2023-04-23T06:30:33;17.60;99.90
45765;DHT22;31474;45.332;10.230;2023-04-23T06:33:00;17.60;99.90
45765;DHT22;31474;45.332;10.230;2023-04-23T06:35:26;17.60;99.90
45765;DHT22;31474;45.332;10.230;2023-04-23T06:37:51;17.80;99.90
45765;DHT22;31474;45.332;10.230;2023-04-23T06:40:17;17.90;99.90
45765;DHT22;31474;45.332;10.230;2023-04-23T06:42:43;17.90;99.90
45765;DHT22;31474;45.332;10.230;2023-04-23T06:45:10;17.90;99.90
45765;DHT22;31474;45.332;10.230;2023-04-23T06:47:36;18.00;99.90
45765;DHT22;31474;45.332;10.230;2023-04-23T06:50:01;18.20;99.90
45765;DHT22;31474;45.332;10.230;2023-04-23T06:52:27;18.20;99.90
45765;DHT22;31474;45.332;10.230;2023-04-23T06:54:52;18.30;99.90
45765;DHT22;31474;45.332;10.230;2023-04-23T06:57:18;18.50;99.90
45765;DHT22;31474;45.332;10.230;2023-04-23T06:59:44;18.70;99.90
45765;DHT22;31474;45.332;10.230;2023-04-23T07:02:09;18.80;99.90
45765;DHT22;31474;45.332;10.230;2023-04-23T07:04:35;18.90;99.90
45765;DHT22;31474;45.332;10.230;2023-04-23T07:07:01;19.10;99.90
45765;DHT22;31474;45.332;10.230;2023-04-23T07:09:27;19.10;99.90
45765;DHT22;31474;45.332;10.230;2023-04-23T07:11:53;19.10;99.90
45765;DHT22;31474;45.332;10.230;2023-04-23T07:14:19;19.00;99.90
45765;DHT22;31474;45.332;10.230;2023-04-23T07:16:45;19.10;99.90
45765;DHT22;31474;45.332;10.230;2023-04-23T07:19:10;19.20;99.90
45765;DHT22;31474;45.332;10.230;2023-04-23T07:21:36;19.20;99.90
45765;DHT22;31474;45.332;10.230;2023-04-23T07:24:01;19.10;99.90
45765;DHT22;31474;45.332;10.230;2023-04-23T07:26:32;18.90;99.90
45765;DHT22;31474;45.332;10.230;2023-04-23T07:28:57;19.00;99.90
45765;DHT22;31474;45.332;10.230;2023-04-23T07:31:23;19.20;99.90
45765;DHT22;31474;45.332;10.230;2023-04-23T07:33:49;19.30;99.90
45765;DHT22;31474;45.332;10.230;2023-04-23T07:36:14;19.50;99.90
45765;DHT22;31474;45.332;10.230;2023-04-23T07:38:41;19.40;99.90
45765;DHT22;31474;45.332;10.230;2023-04-23T07:41:07;19.60;99.90
45765;DHT22;31474;45.332;10.230;2023-04-23T07:43:32;19.80;99.90
45765;DHT22;31474;45.332;10.230;2023-04-23T07:45:58;19.90;99.90
45765;DHT22;31474;45.332;10.230;2023-04-23T07:48:24;19.80;99.90
45765;DHT22;31474;45.332;10.230;2023-04-23T07:50:49;19.80;99.90
45765;DHT22;31474;45.332;10.230;2023-04-23T07:53:15;19.90;99.90
45765;DHT22;31474;45.332;10.230;2023-04-23T07:55:41;20.00;99.90
45765;DHT22;31474;45.332;10.230;2023-04-23T07:58:06;20.10;99.90
45765;DHT22;31474;45.332;10.230;2023-04-23T08:00:32;20.10;99.90
45765;DHT22;31474;45.332;10.230;2023-04-23T08:02:58;20.10;99.90
45765;DHT22;31474;45.332;10.230;2023-04-23T08:05:24;20.10;99.90
45765;DHT22;31474;45.332;10.230;2023-04-23T08:07:51;20.20;99.90
45765;DHT22;31474;45.332;10.230;2023-04-23T08:10:16;20.50;99.90
45765;DHT22;31474;45.332;10.230;2023-04-23T08:12:43;20.80;99.90
45765;DHT22;31474;45.332;10.230;2023-04-23T08:15:09;20.90;99.70
45765;DHT22;31474;45.332;10.230;2023-04-23T08:17:35;21.00;98.70
45765;DHT22;31474;45.332;10.230;2023-04-23T08:20:03;20.90;98.90
45765;DHT22;31474;45.332;10.230;2023-04-23T08:22:29;20.90;98.40
45765;DHT22;31474;45.332;10.230;2023-04-23T08:24:55;20.90;98.20
45765;DHT22;31474;45.332;10.230;2023-04-23T08:27:20;21.10;98.40
45765;DHT22;31474;45.332;10.230;2023-04-23T08:29:47;21.00;98.00
45765;DHT22;31474;45.332;10.230;2023-04-23T08:32:12;21.10;98.40
45765;DHT22;31474;45.332;10.230;2023-04-23T08:34:38;21.20;98.00
45765;DHT22;31474;45.332;10.230;2023-04-23T08:37:04;21.30;97.90
45765;DHT22;31474;45.332;10.230;2023-04-23T08:39:29;21.50;97.70
45765;DHT22;31474;45.332;10.230;2023-04-23T08:42:04;21.60;97.80
45765;DHT22;31474;45.332;10.230;2023-04-23T08:44:35;21.70;97.10
45765;DHT22;31474;45.332;10.230;2023-04-23T08:47:03;21.80;97.40
45765;DHT22;31474;45.332;10.230;2023-04-23T08:49:33;21.50;96.60
45765;DHT22;31474;45.332;10.230;2023-04-23T08:52:16;21.70;97.60
45765;DHT22;31474;45.332;10.230;2023-04-23T08:54:49;22.00;96.90
45765;DHT22;31474;45.332;10.230;2023-04-23T08:57:16;21.80;95.90
45765;DHT22;31474;45.332;10.230;2023-04-23T08:59:42;21.70;95.50
45765;DHT22;31474;45.332;10.230;2023-04-23T09:02:08;21.60;96.10
45765;DHT22;31474;45.332;10.230;2023-04-23T09:04:35;21.60;96.70
45765;DHT22;31474;45.332;10.230;2023-04-23T09:07:01;21.80;96.70
45765;DHT22;31474;45.332;10.230;2023-04-23T09:09:29;21.90;96.20
45765;DHT22;31474;45.332;10.230;2023-04-23T09:11:55;22.10;96.70
45765;DHT22;31474;45.332;10.230;2023-04-23T09:14:24;22.00;95.30
45765;DHT22;31474;45.332;10.230;2023-04-23T09:16:50;21.90;95.20
45765;DHT22;31474;45.332;10.230;2023-04-23T09:19:17;22.10;96.20
45765;DHT22;31474;45.332;10.230;2023-04-23T09:21:46;22.00;95.20
45765;DHT22;31474;45.332;10.230;2023-04-23T09:24:12;22.10;95.90
45765;DHT22;31474;45.332;10.230;2023-04-23T09:26:45;22.30;96.60
45765;DHT22;31474;45.332;10.230;2023-04-23T09:29:16;22.40;94.90
45765;DHT22;31474;45.332;10.230;2023-04-23T09:31:44;22.50;95.60
45765;DHT22;31474;45.332;10.230;2023-04-23T09:34:16;22.60;95.70
45765;DHT22;31474;45.332;10.230;2023-04-23T09:36:44;22.70;95.00
45765;DHT22;31474;45.332;10.230;2023-04-23T09:39:26;22.60;95.10
45765;DHT22;31474;45.332;10.230;2023-04-23T09:41:52;22.60;95.00
45765;DHT22;31474;45.332;10.230;2023-04-23T09:44:19;22.50;95.00
45765;DHT22;31474;45.332;10.230;2023-04-23T09:46:49;22.30;95.20
45765;DHT22;31474;45.332;10.230;2023-04-23T09:49:15;22.10;95.20
45765;DHT22;31474;45.332;10.230;2023-04-23T09:51:41;22.10;95.50
45765;DHT22;31474;45.332;10.230;2023-04-23T09:54:27;22.20;95.40
45765;DHT22;31474;45.332;10.230;2023-04-23T09:56:54;22.20;94.80
45765;DHT22;31474;45.332;10.230;2023-04-23T09:59:27;22.30;95.00
45765;DHT22;31474;45.332;10.230;2023-04-23T10:01:53;22.30;94.50
45765;DHT22;31474;45.332;10.230;2023-04-23T10:04:24;22.40;94.70
45765;DHT22;31474;45.332;10.230;2023-04-23T10:06:57;22.50;95.30
45765;DHT22;31474;45.332;10.230;2023-04-23T10:09:23;22.50;93.90
45765;DHT22;31474;45.332;10.230;2023-04-23T10:11:57;22.50;94.40
45765;DHT22;31474;45.332;10.230;2023-04-23T10:14:25;22.70;94.00
45765;DHT22;31474;45.332;10.230;2023-04-23T10:16:58;22.70;94.30
45765;DHT22;31474;45.332;10.230;2023-04-23T10:19:25;22.60;94.50
45765;DHT22;31474;45.332;10.230;2023-04-23T10:21:56;22.60;93.40
45765;DHT22;31474;45.332;10.230;2023-04-23T10:24:24;22.50;94.30
45765;DHT22;31474;45.332;10.230;2023-04-23T10:26:56;22.60;94.30
45765;DHT22;31474;45.332;10.230;2023-04-23T10:29:26;22.90;94.10
45765;DHT22;31474;45.332;10.230;2023-04-23T10:31:54;23.00;93.90
45765;DHT22;31474;45.332;10.230;2023-04-23T10:34:20;23.00;94.40
45765;DHT22;31474;45.332;10.230;2023-04-23T10:36:50;22.90;93.50
45765;DHT22;31474;45.332;10.230;2023-04-23T10:39:17;22.90;93.50
45765;DHT22;31474;45.332;10.230;2023-04-23T10:41:43;22.90;92.30
45765;DHT22;31474;45.332;10.230;2023-04-23T10:44:13;22.80;93.40
45765;DHT22;31474;45.332;10.230;2023-04-23T10:46:52;23.00;92.70
45765;DHT22;31474;45.332;10.230;2023-04-23T10:49:21;22.80;91.80
45765;DHT22;31474;45.332;10.230;2023-04-23T10:51:48;22.90;94.10
45765;DHT22;31474;45.332;10.230;2023-04-23T10:54:14;22.90;93.40
45765;DHT22;31474;45.332;10.230;2023-04-23T10:56:42;23.10;92.80
45765;DHT22;31474;45.332;10.230;2023-04-23T10:59:20;23.20;92.40
45765;DHT22;31474;45.332;10.230;2023-04-23T11:01:48;23.20;91.40
45765;DHT22;31474;45.332;10.230;2023-04-23T11:04:21;23.20;91.80
45765;DHT22;31474;45.332;10.230;2023-04-23T11:14:48;23.50;91.20
45765;DHT22;31474;45.332;10.230;2023-04-23T11:17:20;23.50;91.10
45765;DHT22;31474;45.332;10.230;2023-04-23T11:20:12;23.50;92.40
45765;DHT22;31474;45.332;10.230;2023-04-23T11:22:42;23.50;90.10
45765;DHT22;31474;45.332;10.230;2023-04-23T11:25:11;23.50;90.90
45765;DHT22;31474;45.332;10.230;2023-04-23T11:27:43;23.40;91.00
45765;DHT22;31474;45.332;10.230;2023-04-23T11:30:11;23.30;90.50
45765;DHT22;31474;45.332;10.230;2023-04-23T11:32:42;23.40;91.50
45765;DHT22;31474;45.332;10.230;2023-04-23T11:35:09;23.40;91.70
45765;DHT22;31474;45.332;10.230;2023-04-23T11:37:42;23.60;91.60
45765;DHT22;31474;45.332;10.230;2023-04-23T11:40:12;23.50;88.90
45765;DHT22;31474;45.332;10.230;2023-04-23T11:42:42;23.60;89.10
45765;DHT22;31474;45.332;10.230;2023-04-23T11:45:40;23.60;90.70
45765;DHT22;31474;45.332;10.230;2023-04-23T11:48:05;23.80;89.70
45765;DHT22;31474;45.332;10.230;2023-04-23T11:50:32;23.70;90.70
45765;DHT22;31474;45.332;10.230;2023-04-23T11:53:09;23.70;91.50
45765;DHT22;31474;45.332;10.230;2023-04-23T11:55:35;23.80;89.90
45765;DHT22;31474;45.332;10.230;2023-04-23T11:58:02;23.70;90.50
45765;DHT22;31474;45.332;10.230;2023-04-23T12:00:28;23.70;90.60
45765;DHT22;31474;45.332;10.230;2023-04-23T12:02:55;23.50;90.90
45765;DHT22;31474;45.332;10.230;2023-04-23T12:05:26;23.50;90.20
45765;DHT22;31474;45.332;10.230;2023-04-23T12:07:53;23.60;90.70
45765;DHT22;31474;45.332;10.230;2023-04-23T12:10:23;23.70;91.30
45765;DHT22;31474;45.332;10.230;2023-04-23T12:12:52;23.70;90.50
45765;DHT22;31474;45.332;10.230;2023-04-23T12:15:18;23.80;89.80
45765;DHT22;31474;45.332;10.230;2023-04-23T12:17:50;23.80;90.70
45765;DHT22;31474;45.332;10.230;2023-04-23T12:20:17;23.80;90.60
45765;DHT22;31474;45.332;10.230;2023-04-23T12:22:43;23.80;90.00
45765;DHT22;31474;45.332;10.230;2023-04-23T12:25:09;23.70;90.40
45765;DHT22;31474;45.332;10.230;2023-04-23T12:27:38;23.70;89.80
45765;DHT22;31474;45.332;10.230;2023-04-23T12:30:06;23.80;90.10
45765;DHT22;31474;45.332;10.230;2023-04-23T12:32:33;23.90;90.40
45765;DHT22;31474;45.332;10.230;2023-04-23T12:34:58;23.90;90.10
45765;DHT22;31474;45.332;10.230;2023-04-23T12:37:25;24.00;90.10
45765;DHT22;31474;45.332;10.230;2023-04-23T12:39:51;24.10;90.40
45765;DHT22;31474;45.332;10.230;2023-04-23T12:42:19;24.30;90.10
45765;DHT22;31474;45.332;10.230;2023-04-23T12:44:44;24.30;90.00
45765;DHT22;31474;45.332;10.230;2023-04-23T12:47:11;24.40;90.70
45765;DHT22;31474;45.332;10.230;2023-04-23T12:49:40;24.40;89.10
45765;DHT22;31474;45.332;10.230;2023-04-23T12:52:06;24.50;88.30
45765;DHT22;31474;45.332;10.230;2023-04-23T12:54:34;24.50;87.10
45765;DHT22;31474;45.332;10.230;2023-04-23T12:57:05;24.50;88.70
45765;DHT22;31474;45.332;10.230;2023-04-23T12:59:31;24.40;87.80
45765;DHT22;31474;45.332;10.230;2023-04-23T13:01:57;24.30;87.80
45765;DHT22;31474;45.332;10.230;2023-04-23T13:04:27;24.30;87.50
45765;DHT22;31474;45.332;10.230;2023-04-23T13:06:53;24.30;87.80
45765;DHT22;31474;45.332;10.230;2023-04-23T13:09:19;24.20;88.20
45765;DHT22;31474;45.332;10.230;2023-04-23T13:11:46;24.20;85.60
45765;DHT22;31474;45.332;10.230;2023-04-23T13:14:14;24.20;87.90
45765;DHT22;31474;45.332;10.230;2023-04-23T13:16:43;24.20;87.90
45765;DHT22;31474;45.332;10.230;2023-04-23T13:19:08;24.30;87.90
45765;DHT22;31474;45.332;10.230;2023-04-23T13:21:34;24.40;89.20
45765;DHT22;31474;45.332;10.230;2023-04-23T13:24:00;24.50;88.50
45765;DHT22;31474;45.332;10.230;2023-04-23T13:26:26;24.50;87.20
45765;DHT22;31474;45.332;10.230;2023-04-23T13:28:56;24.40;87.90
45765;DHT22;31474;45.332;10.230;2023-04-23T13:31:22;24.40;85.90
45765;DHT22;31474;45.332;10.230;2023-04-23T13:33:48;24.30;86.70
45765;DHT22;31474;45.332;10.230;2023-04-23T13:36:13;24.30;87.60
45765;DHT22;31474;45.332;10.230;2023-04-23T13:38:39;24.30;87.40
45765;DHT22;31474;45.332;10.230;2023-04-23T13:41:05;24.30;86.60
45765;DHT22;31474;45.332;10.230;2023-04-23T13:43:30;24.30;87.00
45765;DHT22;31474;45.332;10.230;2023-04-23T13:45:56;24.20;85.50
45765;DHT22;31474;45.332;10.230;2023-04-23T13:48:22;24.20;87.00
45765;DHT22;31474;45.332;10.230;2023-04-23T13:50:53;24.30;89.00
45765;DHT22;31474;45.332;10.230;2023-04-23T13:53:19;24.30;88.20
45765;DHT22;31474;45.332;10.230;2023-04-23T13:55:45;24.30;88.80
45765;DHT22;31474;45.332;10.230;2023-04-23T13:58:11;24.40;89.80
45765;DHT22;31474;45.332;10.230;2023-04-23T14:00:37;24.50;89.20
45765;DHT22;31474;45.332;10.230;2023-04-23T14:03:02;24.50;89.70
45765;DHT22;31474;45.332;10.230;2023-04-23T14:05:29;24.50;89.00
45765;DHT22;31474;45.332;10.230;2023-04-23T14:07:55;24.40;88.00
45765;DHT22;31474;45.332;10.230;2023-04-23T14:10:21;24.20;87.70
45765;DHT22;31474;45.332;10.230;2023-04-23T14:12:47;24.00;88.90
45765;DHT22;31474;45.332;10.230;2023-04-23T14:15:13;24.00;89.60
45765;DHT22;31474;45.332;10.230;2023-04-23T14:17:39;24.00;87.90
45765;DHT22;31474;45.332;10.230;2023-04-23T14:20:08;23.90;88.30
45765;DHT22;31474;45.332;10.230;2023-04-23T14:22:34;24.10;88.80
45765;DHT22;31474;45.332;10.230;2023-04-23T14:25:08;24.10;88.10
45765;DHT22;31474;45.332;10.230;2023-04-23T14:27:44;24.00;86.00
45765;DHT22;31474;45.332;10.230;2023-04-23T14:30:18;23.90;87.30
45765;DHT22;31474;45.332;10.230;2023-04-23T14:32:43;23.90;86.50
45765;DHT22;31474;45.332;10.230;2023-04-23T14:35:13;23.80;88.20
45765;DHT22;31474;45.332;10.230;2023-04-23T14:37:40;23.70;87.90
45765;DHT22;31474;45.332;10.230;2023-04-23T14:40:10;23.70;89.00
45765;DHT22;31474;45.332;10.230;2023-04-23T14:42:38;23.80;88.00
45765;DHT22;31474;45.332;10.230;2023-04-23T14:45:03;23.80;88.70
45765;DHT22;31474;45.332;10.230;2023-04-23T14:47:29;23.80;86.90
45765;DHT22;31474;45.332;10.230;2023-04-23T14:49:55;23.90;88.40
45765;DHT22;31474;45.332;10.230;2023-04-23T14:52:22;23.90;88.80
45765;DHT22;31474;45.332;10.230;2023-04-23T14:54:48;23.90;87.90
45765;DHT22;31474;45.332;10.230;2023-04-23T14:57:14;23.90;88.30
45765;DHT22;31474;45.332;10.230;2023-04-23T14:59:39;23.90;88.10
45765;DHT22;31474;45.332;10.230;2023-04-23T15:02:05;23.90;88.20
45765;DHT22;31474;45.332;10.230;2023-04-23T15:04:31;23.90;88.30
45765;DHT22;31474;45.332;10.230;2023-04-23T15:06:57;23.90;87.40
45765;DHT22;31474;45.332;10.230;2023-04-23T15:09:22;23.80;86.00
45765;DHT22;31474;45.332;10.230;2023-04-23T15:11:48;23.70;87.80
45765;DHT22;31474;45.332;10.230;2023-04-23T15:14:36;23.70;87.10
45765;DHT22;31474;45.332;10.230;2023-04-23T15:17:02;23.50;86.80
45765;DHT22;31474;45.332;10.230;2023-04-23T15:19:27;23.50;87.70
45765;DHT22;31474;45.332;10.230;2023-04-23T15:21:55;23.50;87.80